N624ML SCBA-SCCI
Flight info
| Callsign | N624ML |
|---|---|
| Flight time | 1h 13m |
| Altitude | 30000 |
| Route | SURT4J SURTA NIPLA BODOM NEPOL PNT NEDAX NEDA3G |
| Aircraft | C750/M-G/C |
Departure
| Time | 2026-05-09 15:26 |
|---|---|
| Airport | Balmaceda Airport (SCBA) |
Arrival
| Time | 2026-05-09 16:39 |
|---|---|
| Airport | President Carlos Ibáñez International Airport (SCCI) |
| Time | Latitude | Longitude | Altitude | Speed | Heading |
|---|---|---|---|---|---|
| 2026-05-09 15:19 | -45.91709 | -71.67342 | 1658 ft | 0 kts | 189° |
| 2026-05-09 15:23 | -45.91762 | -71.67358 | 1662 ft | 7 kts | 198° |
| 2026-05-09 15:23 | -45.91785 | -71.67411 | 1665 ft | 0 kts | 273° |
| 2026-05-09 15:24 | -45.91784 | -71.67428 | 1666 ft | 16 kts | 276° |
| 2026-05-09 15:25 | -45.91718 | -71.67989 | 1663 ft | 92 kts | 281° |
| 2026-05-09 15:25 | -45.91565 | -71.69234 | 1680 ft | 159 kts | 279° |
| 2026-05-09 15:25 | -45.91330 | -71.70949 | 2056 ft | 198 kts | 282° |
| 2026-05-09 15:26 | -45.89511 | -71.75237 | 3049 ft | 275 kts | 306° |
| 2026-05-09 15:26 | -45.88355 | -71.77367 | 4473 ft | 272 kts | 308° |
| 2026-05-09 15:26 | -45.87163 | -71.79346 | 5972 ft | 264 kts | 310° |
| 2026-05-09 15:26 | -45.85931 | -71.81207 | 7317 ft | 260 kts | 312° |
| 2026-05-09 15:27 | -45.84622 | -71.83028 | 8243 ft | 275 kts | 313° |
| 2026-05-09 15:27 | -45.83167 | -71.84911 | 9335 ft | 289 kts | 316° |
| 2026-05-09 15:27 | -45.81822 | -71.86981 | 10552 ft | 291 kts | 294° |
| 2026-05-09 15:27 | -45.81516 | -71.90713 | 11860 ft | 296 kts | 251° |
| 2026-05-09 15:28 | -45.82125 | -71.92436 | 12587 ft | 297 kts | 231° |
| 2026-05-09 15:28 | -45.83732 | -71.94174 | 13524 ft | 296 kts | 202° |
| 2026-05-09 15:28 | -45.85793 | -71.94437 | 14294 ft | 308 kts | 175° |
| 2026-05-09 15:28 | -45.87904 | -71.93724 | 14976 ft | 315 kts | 171° |
| 2026-05-09 15:29 | -45.90025 | -71.93027 | 15676 ft | 318 kts | 172° |
| 2026-05-09 15:29 | -45.92196 | -71.92303 | 16348 ft | 322 kts | 172° |
| 2026-05-09 15:29 | -45.94417 | -71.91699 | 17172 ft | 327 kts | 182° |
| 2026-05-09 15:29 | -45.97337 | -71.92440 | 18552 ft | 325 kts | 193° |
| 2026-05-09 15:30 | -45.98820 | -71.92718 | 19221 ft | 327 kts | 191° |
| 2026-05-09 15:30 | -46.01047 | -71.93186 | 20232 ft | 328 kts | 192° |
| 2026-05-09 15:30 | -46.03323 | -71.93648 | 21137 ft | 331 kts | 192° |
| 2026-05-09 15:30 | -46.05521 | -71.94402 | 21955 ft | 329 kts | 208° |
| 2026-05-09 15:31 | -46.07269 | -71.96452 | 22812 ft | 328 kts | 229° |
| 2026-05-09 15:31 | -46.09314 | -71.99682 | 23906 ft | 331 kts | 227° |
| 2026-05-09 15:31 | -46.10337 | -72.01296 | 24448 ft | 333 kts | 227° |
| 2026-05-09 15:31 | -46.11894 | -72.03749 | 25315 ft | 334 kts | 227° |
| 2026-05-09 15:32 | -46.13464 | -72.06223 | 26185 ft | 335 kts | 227° |
| 2026-05-09 15:32 | -46.15025 | -72.08694 | 26939 ft | 337 kts | 227° |
| 2026-05-09 15:32 | -46.16616 | -72.11193 | 27627 ft | 341 kts | 227° |
| 2026-05-09 15:32 | -46.18193 | -72.13704 | 28391 ft | 343 kts | 227° |
| 2026-05-09 15:33 | -46.19816 | -72.16258 | 29119 ft | 344 kts | 227° |
| 2026-05-09 15:33 | -46.21427 | -72.18793 | 29710 ft | 348 kts | 227° |
| 2026-05-09 15:33 | -46.23031 | -72.21350 | 30213 ft | 355 kts | 227° |
| 2026-05-09 15:33 | -46.24742 | -72.24060 | 30254 ft | 373 kts | 227° |
| 2026-05-09 15:34 | -46.26543 | -72.26905 | 30265 ft | 390 kts | 226° |
| 2026-05-09 15:34 | -46.28405 | -72.29870 | 30255 ft | 407 kts | 227° |
| 2026-05-09 15:34 | -46.30466 | -72.32800 | 30223 ft | 424 kts | 218° |
| 2026-05-09 15:34 | -46.33173 | -72.34640 | 30278 ft | 445 kts | 201° |
| 2026-05-09 15:35 | -46.36144 | -72.36008 | 30230 ft | 458 kts | 203° |
| 2026-05-09 15:35 | -46.39236 | -72.37546 | 30224 ft | 471 kts | 201° |
| 2026-05-09 15:35 | -46.45440 | -72.40584 | 30275 ft | 468 kts | 202° |
| 2026-05-09 15:36 | -46.51624 | -72.43639 | 30232 ft | 465 kts | 202° |
| 2026-05-09 15:36 | -46.57820 | -72.46720 | 30227 ft | 461 kts | 202° |
| 2026-05-09 15:37 | -46.63870 | -72.49711 | 30208 ft | 459 kts | 202° |
| 2026-05-09 15:37 | -46.69891 | -72.52708 | 30252 ft | 455 kts | 203° |
| 2026-05-09 15:38 | -46.75835 | -72.55657 | 30268 ft | 453 kts | 202° |
| 2026-05-09 15:38 | -46.81833 | -72.58655 | 30256 ft | 457 kts | 202° |
| 2026-05-09 15:39 | -46.87879 | -72.61700 | 30255 ft | 463 kts | 202° |
| 2026-05-09 15:39 | -46.93998 | -72.64761 | 30237 ft | 466 kts | 203° |
| 2026-05-09 15:40 | -47.00137 | -72.67851 | 30232 ft | 467 kts | 204° |
| 2026-05-09 15:40 | -47.06284 | -72.70953 | 30235 ft | 466 kts | 204° |
| 2026-05-09 15:41 | -47.12428 | -72.74048 | 30257 ft | 467 kts | 204° |
| 2026-05-09 15:41 | -47.18532 | -72.77142 | 30258 ft | 462 kts | 204° |
| 2026-05-09 15:42 | -47.24542 | -72.80200 | 30257 ft | 457 kts | 204° |
| 2026-05-09 15:42 | -47.30538 | -72.83249 | 30255 ft | 454 kts | 204° |
| 2026-05-09 15:43 | -47.36467 | -72.86273 | 30252 ft | 451 kts | 204° |
| 2026-05-09 15:43 | -47.42394 | -72.89310 | 30258 ft | 448 kts | 204° |
| 2026-05-09 15:44 | -47.48267 | -72.92323 | 30252 ft | 446 kts | 205° |
| 2026-05-09 15:44 | -47.54111 | -72.95324 | 30265 ft | 443 kts | 204° |
| 2026-05-09 15:45 | -47.59987 | -72.98347 | 30263 ft | 449 kts | 204° |
| 2026-05-09 15:45 | -47.65915 | -73.01411 | 30252 ft | 454 kts | 205° |
| 2026-05-09 15:46 | -47.71880 | -73.04506 | 30245 ft | 457 kts | 205° |
| 2026-05-09 15:46 | -47.77902 | -73.07642 | 30243 ft | 458 kts | 205° |
| 2026-05-09 15:47 | -47.83937 | -73.10766 | 30267 ft | 458 kts | 205° |
| 2026-05-09 15:47 | -47.90928 | -73.14411 | 30289 ft | 457 kts | 205° |
| 2026-05-09 15:48 | -47.95933 | -73.17040 | 30303 ft | 458 kts | 206° |
| 2026-05-09 15:48 | -48.01932 | -73.20174 | 30305 ft | 454 kts | 206° |
| 2026-05-09 15:49 | -48.07856 | -73.23275 | 30308 ft | 451 kts | 206° |
| 2026-05-09 15:49 | -48.13733 | -73.26387 | 30304 ft | 448 kts | 206° |
| 2026-05-09 15:50 | -48.19568 | -73.29450 | 30314 ft | 444 kts | 206° |
| 2026-05-09 15:50 | -48.25423 | -73.32559 | 30289 ft | 448 kts | 206° |
| 2026-05-09 15:51 | -48.28450 | -73.33738 | 30232 ft | 464 kts | 196° |
| 2026-05-09 15:51 | -48.31666 | -73.34300 | 30247 ft | 463 kts | 198° |
| 2026-05-09 15:51 | -48.38062 | -73.35611 | 30223 ft | 465 kts | 197° |
| 2026-05-09 15:52 | -48.47720 | -73.37545 | 30243 ft | 467 kts | 197° |
| 2026-05-09 15:53 | -48.54128 | -73.38822 | 30251 ft | 468 kts | 196° |
| 2026-05-09 15:53 | -48.60603 | -73.40120 | 30222 ft | 468 kts | 197° |
| 2026-05-09 15:54 | -48.67087 | -73.41392 | 30216 ft | 467 kts | 197° |
| 2026-05-09 15:54 | -48.73514 | -73.42706 | 30200 ft | 467 kts | 197° |
| 2026-05-09 15:55 | -48.79955 | -73.44021 | 30212 ft | 466 kts | 197° |
| 2026-05-09 15:55 | -48.86379 | -73.45310 | 30244 ft | 466 kts | 198° |
| 2026-05-09 15:56 | -48.92816 | -73.46627 | 30262 ft | 466 kts | 198° |
| 2026-05-09 15:56 | -48.99225 | -73.47933 | 30278 ft | 466 kts | 198° |
| 2026-05-09 15:57 | -49.05676 | -73.49227 | 30295 ft | 467 kts | 199° |
| 2026-05-09 15:57 | -49.12132 | -73.50569 | 30306 ft | 469 kts | 197° |
| 2026-05-09 15:58 | -49.18586 | -73.51891 | 30299 ft | 468 kts | 198° |
| 2026-05-09 15:58 | -49.24974 | -73.53188 | 30285 ft | 469 kts | 198° |
| 2026-05-09 15:59 | -49.31432 | -73.54532 | 30248 ft | 469 kts | 198° |
| 2026-05-09 15:59 | -49.37871 | -73.55847 | 30224 ft | 468 kts | 199° |
| 2026-05-09 16:00 | -49.44337 | -73.57208 | 30206 ft | 467 kts | 198° |
| 2026-05-09 16:00 | -49.51817 | -73.58752 | 30171 ft | 466 kts | 199° |
| 2026-05-09 16:01 | -49.57057 | -73.59851 | 30163 ft | 468 kts | 199° |
| 2026-05-09 16:01 | -49.63552 | -73.61199 | 30170 ft | 468 kts | 199° |
| 2026-05-09 16:02 | -49.70013 | -73.62540 | 30168 ft | 467 kts | 198° |
| 2026-05-09 16:02 | -49.79668 | -73.64578 | 30169 ft | 467 kts | 199° |
| 2026-05-09 16:03 | -49.86140 | -73.65926 | 30161 ft | 469 kts | 200° |
| 2026-05-09 16:03 | -49.93683 | -73.67541 | 30169 ft | 470 kts | 200° |
| 2026-05-09 16:04 | -49.99066 | -73.68684 | 30165 ft | 469 kts | 201° |
| 2026-05-09 16:04 | -50.05486 | -73.70055 | 30145 ft | 468 kts | 200° |
| 2026-05-09 16:05 | -50.11963 | -73.71421 | 30186 ft | 469 kts | 200° |
| 2026-05-09 16:05 | -50.18436 | -73.72813 | 30172 ft | 471 kts | 200° |
| 2026-05-09 16:06 | -50.24915 | -73.74210 | 30172 ft | 472 kts | 200° |
| 2026-05-09 16:06 | -50.31441 | -73.75597 | 30194 ft | 471 kts | 200° |
| 2026-05-09 16:07 | -50.34697 | -73.76183 | 30167 ft | 482 kts | 195° |
| 2026-05-09 16:07 | -50.38104 | -73.75356 | 30214 ft | 519 kts | 176° |
| 2026-05-09 16:07 | -50.41456 | -73.72735 | 30212 ft | 552 kts | 159° |
| 2026-05-09 16:07 | -50.44614 | -73.69371 | 30179 ft | 544 kts | 162° |
| 2026-05-09 16:08 | -50.51059 | -73.63285 | 30199 ft | 542 kts | 162° |
| 2026-05-09 16:08 | -50.57511 | -73.57229 | 30154 ft | 543 kts | 161° |
| 2026-05-09 16:09 | -50.63996 | -73.51133 | 30135 ft | 543 kts | 162° |
| 2026-05-09 16:09 | -50.70468 | -73.45031 | 30119 ft | 544 kts | 161° |
| 2026-05-09 16:10 | -50.76911 | -73.38923 | 30123 ft | 543 kts | 161° |
| 2026-05-09 16:10 | -50.83375 | -73.32783 | 30092 ft | 544 kts | 160° |
| 2026-05-09 16:11 | -50.89869 | -73.26598 | 30112 ft | 543 kts | 160° |
| 2026-05-09 16:11 | -50.96337 | -73.20414 | 30111 ft | 542 kts | 160° |
| 2026-05-09 16:12 | -51.02770 | -73.14236 | 30111 ft | 543 kts | 160° |
| 2026-05-09 16:12 | -51.09237 | -73.08018 | 30094 ft | 542 kts | 160° |
| 2026-05-09 16:13 | -51.15653 | -73.01817 | 30110 ft | 542 kts | 160° |
| 2026-05-09 16:13 | -51.22075 | -72.95790 | 30105 ft | 533 kts | 164° |
| 2026-05-09 16:14 | -51.25294 | -72.92678 | 30115 ft | 548 kts | 155° |
| 2026-05-09 16:14 | -51.28466 | -72.89384 | 30131 ft | 539 kts | 160° |
| 2026-05-09 16:14 | -51.34849 | -72.83115 | 30131 ft | 540 kts | 159° |
| 2026-05-09 16:15 | -51.41318 | -72.76755 | 30129 ft | 542 kts | 159° |
| 2026-05-09 16:15 | -51.47695 | -72.70464 | 30125 ft | 542 kts | 159° |
| 2026-05-09 16:16 | -51.54130 | -72.64100 | 30117 ft | 542 kts | 159° |
| 2026-05-09 16:16 | -51.60529 | -72.57752 | 30116 ft | 542 kts | 158° |
| 2026-05-09 16:17 | -51.66939 | -72.51364 | 30123 ft | 542 kts | 158° |
| 2026-05-09 16:17 | -51.73340 | -72.44949 | 30124 ft | 545 kts | 157° |
| 2026-05-09 16:18 | -51.79493 | -72.37580 | 30120 ft | 551 kts | 153° |
| 2026-05-09 16:18 | -51.85630 | -72.30090 | 29408 ft | 560 kts | 151° |
| 2026-05-09 16:19 | -51.88695 | -72.26331 | 28615 ft | 540 kts | 151° |
| 2026-05-09 16:19 | -51.91626 | -72.22751 | 27971 ft | 529 kts | 152° |
| 2026-05-09 16:19 | -51.94534 | -72.19190 | 27253 ft | 521 kts | 151° |
| 2026-05-09 16:19 | -51.97379 | -72.15713 | 26543 ft | 514 kts | 151° |
| 2026-05-09 16:20 | -52.00207 | -72.12239 | 25821 ft | 508 kts | 151° |
| 2026-05-09 16:20 | -52.03014 | -72.08778 | 25161 ft | 501 kts | 150° |
| 2026-05-09 16:20 | -52.05748 | -72.05409 | 24575 ft | 493 kts | 150° |
| 2026-05-09 16:20 | -52.08437 | -72.02098 | 23986 ft | 487 kts | 150° |
| 2026-05-09 16:21 | -52.11146 | -71.98756 | 23365 ft | 481 kts | 150° |
| 2026-05-09 16:21 | -52.13746 | -71.95541 | 22810 ft | 476 kts | 150° |
| 2026-05-09 16:21 | -52.16355 | -71.92307 | 22681 ft | 459 kts | 150° |
| 2026-05-09 16:21 | -52.18836 | -71.89218 | 22644 ft | 444 kts | 150° |
| 2026-05-09 16:22 | -52.21283 | -71.86182 | 22318 ft | 438 kts | 150° |
| 2026-05-09 16:22 | -52.23670 | -71.83223 | 21914 ft | 435 kts | 150° |
| 2026-05-09 16:22 | -52.26065 | -71.80245 | 21457 ft | 433 kts | 150° |
| 2026-05-09 16:22 | -52.28469 | -71.77253 | 20828 ft | 435 kts | 149° |
| 2026-05-09 16:23 | -52.30842 | -71.74292 | 20227 ft | 436 kts | 149° |
| 2026-05-09 16:23 | -52.33261 | -71.71265 | 19609 ft | 436 kts | 149° |
| 2026-05-09 16:23 | -52.35641 | -71.68283 | 18998 ft | 435 kts | 148° |
| 2026-05-09 16:23 | -52.38022 | -71.65307 | 18382 ft | 434 kts | 148° |
| 2026-05-09 16:24 | -52.40419 | -71.62289 | 17752 ft | 432 kts | 148° |
| 2026-05-09 16:24 | -52.42792 | -71.59299 | 17127 ft | 430 kts | 148° |
| 2026-05-09 16:24 | -52.45140 | -71.56345 | 16504 ft | 428 kts | 148° |
| 2026-05-09 16:24 | -52.47506 | -71.53360 | 15872 ft | 426 kts | 148° |
| 2026-05-09 16:25 | -52.49839 | -71.50407 | 15244 ft | 424 kts | 148° |
| 2026-05-09 16:25 | -52.52148 | -71.47491 | 14620 ft | 421 kts | 148° |
| 2026-05-09 16:25 | -52.54456 | -71.44576 | 13881 ft | 418 kts | 148° |
| 2026-05-09 16:25 | -52.56746 | -71.41660 | 13112 ft | 407 kts | 148° |
| 2026-05-09 16:26 | -52.58901 | -71.38915 | 12279 ft | 387 kts | 148° |
| 2026-05-09 16:26 | -52.60984 | -71.36264 | 11495 ft | 369 kts | 148° |
| 2026-05-09 16:26 | -52.62941 | -71.33775 | 10729 ft | 355 kts | 148° |
| 2026-05-09 16:26 | -52.64873 | -71.31323 | 9946 ft | 344 kts | 148° |
| 2026-05-09 16:27 | -52.66745 | -71.28934 | 9176 ft | 336 kts | 148° |
| 2026-05-09 16:27 | -52.68579 | -71.26578 | 8390 ft | 331 kts | 145° |
| 2026-05-09 16:27 | -52.69999 | -71.23580 | 7565 ft | 331 kts | 124° |
| 2026-05-09 16:27 | -52.71292 | -71.20552 | 6775 ft | 312 kts | 134° |
| 2026-05-09 16:28 | -52.72641 | -71.17670 | 5939 ft | 298 kts | 133° |
| 2026-05-09 16:28 | -52.73917 | -71.14982 | 5326 ft | 279 kts | 133° |
| 2026-05-09 16:28 | -52.75077 | -71.12506 | 5077 ft | 257 kts | 133° |
| 2026-05-09 16:28 | -52.76159 | -71.10214 | 4809 ft | 248 kts | 133° |
| 2026-05-09 16:29 | -52.77193 | -71.08015 | 4527 ft | 242 kts | 133° |
| 2026-05-09 16:29 | -52.78218 | -71.05845 | 4249 ft | 236 kts | 133° |
| 2026-05-09 16:29 | -52.79207 | -71.03735 | 4046 ft | 227 kts | 134° |
| 2026-05-09 16:29 | -52.80152 | -71.01723 | 4016 ft | 210 kts | 134° |
| 2026-05-09 16:30 | -52.81013 | -70.99877 | 4010 ft | 194 kts | 134° |
| 2026-05-09 16:30 | -52.81809 | -70.98174 | 3995 ft | 181 kts | 135° |
| 2026-05-09 16:30 | -52.82598 | -70.96509 | 4040 ft | 190 kts | 135° |
| 2026-05-09 16:30 | -52.83452 | -70.94707 | 4073 ft | 210 kts | 134° |
| 2026-05-09 16:31 | -52.84357 | -70.92635 | 4061 ft | 231 kts | 120° |
| 2026-05-09 16:31 | -52.84909 | -70.89991 | 4081 ft | 246 kts | 108° |
| 2026-05-09 16:31 | -52.85414 | -70.87185 | 4053 ft | 256 kts | 110° |
| 2026-05-09 16:31 | -52.86128 | -70.83376 | 4038 ft | 264 kts | 110° |
| 2026-05-09 16:32 | -52.86682 | -70.80441 | 4041 ft | 268 kts | 110° |
| 2026-05-09 16:32 | -52.87058 | -70.78448 | 4038 ft | 271 kts | 110° |
| 2026-05-09 16:32 | -52.87631 | -70.75409 | 4011 ft | 275 kts | 110° |
| 2026-05-09 16:32 | -52.88230 | -70.72247 | 3800 ft | 286 kts | 109° |
| 2026-05-09 16:33 | -52.88829 | -70.69054 | 3586 ft | 287 kts | 109° |
| 2026-05-09 16:33 | -52.89395 | -70.66019 | 3582 ft | 262 kts | 110° |
| 2026-05-09 16:33 | -52.89916 | -70.63249 | 3518 ft | 246 kts | 110° |
| 2026-05-09 16:33 | -52.90412 | -70.60596 | 3511 ft | 235 kts | 110° |
| 2026-05-09 16:34 | -52.90951 | -70.58052 | 3507 ft | 235 kts | 123° |
| 2026-05-09 16:34 | -52.92118 | -70.56358 | 3530 ft | 217 kts | 167° |
| 2026-05-09 16:34 | -52.93569 | -70.56059 | 3549 ft | 208 kts | 187° |
| 2026-05-09 16:34 | -52.95005 | -70.56265 | 3507 ft | 200 kts | 210° |
| 2026-05-09 16:35 | -52.96125 | -70.57518 | 3544 ft | 193 kts | 224° |
| 2026-05-09 16:35 | -52.97213 | -70.58913 | 3241 ft | 200 kts | 224° |
| 2026-05-09 16:35 | -52.98318 | -70.60354 | 2967 ft | 202 kts | 225° |
| 2026-05-09 16:35 | -52.99406 | -70.61790 | 2721 ft | 199 kts | 227° |
| 2026-05-09 16:36 | -53.00008 | -70.63721 | 2443 ft | 185 kts | 269° |
| 2026-05-09 16:36 | -52.99846 | -70.68722 | 1884 ft | 121 kts | 271° |
| 2026-05-09 16:37 | -52.99863 | -70.70161 | 1719 ft | 118 kts | 271° |
| 2026-05-09 16:37 | -52.99880 | -70.71568 | 1555 ft | 117 kts | 271° |
| 2026-05-09 16:37 | -52.99901 | -70.72983 | 1391 ft | 118 kts | 271° |
| 2026-05-09 16:37 | -52.99922 | -70.74403 | 1226 ft | 119 kts | 271° |
| 2026-05-09 16:38 | -52.99943 | -70.75845 | 1062 ft | 120 kts | 271° |
| 2026-05-09 16:38 | -52.99964 | -70.77303 | 886 ft | 122 kts | 271° |
| 2026-05-09 16:38 | -52.99985 | -70.78786 | 712 ft | 124 kts | 271° |
| 2026-05-09 16:38 | -53.00006 | -70.80286 | 533 ft | 127 kts | 272° |
| 2026-05-09 16:39 | -53.00065 | -70.81808 | 353 ft | 128 kts | 269° |
| 2026-05-09 16:39 | -53.00064 | -70.83287 | 170 ft | 129 kts | 273° |
| 2026-05-09 16:39 | -53.00080 | -70.84641 | 126 ft | 98 kts | 271° |
| 2026-05-09 16:39 | -53.00090 | -70.85343 | 132 ft | 17 kts | 263° |
| 2026-05-09 16:40 | -53.00093 | -70.85683 | 139 ft | 37 kts | 277° |
| 2026-05-09 16:40 | -53.00085 | -70.86069 | 145 ft | 22 kts | 271° |
| 2026-05-09 16:42 | -53.00254 | -70.84916 | 131 ft | 19 kts | 89° |
| 2026-05-09 16:42 | -53.00259 | -70.84776 | 131 ft | 10 kts | 113° |
| 2026-05-09 16:42 | -53.00316 | -70.84698 | 131 ft | 11 kts | 145° |
| 2026-05-09 16:42 | -53.00386 | -70.84626 | 131 ft | 12 kts | 159° |
| 2026-05-09 16:43 | -53.00446 | -70.84686 | 131 ft | 9 kts | 225° |
| 2026-05-09 16:43 | -53.00454 | -70.84701 | 131 ft | 0 kts | 224° |